Terminal Aerodrome Forecast
Issued by NWS

Home | Current Version | Previous Version | Graphics & Text | Print | Product List | Glossary On
Versions: 1 2 3 4 5 6 7 8 9 10 11 12 13 14 15
000
FTUS43 KGRB 101000 AAA
TAFCWA
TAF AMD
KCWA 101035Z 1011/1106 VRB03KT P6SM SKC
     FM101500 17008KT P6SM SCT045
     FM110300 15006KT P6SM SCT100 BKN200
      AMD LTD TO CLD VIS AND WIND TIL 101200=

USA.gov is the U.S. government's official web portal to all federal, state and local government web resources and services.